Airfield :
LOGIN :

Register | Disclaimer

   EN    FR    IT 

 










Legend :    VFR   Marginal VFR   IFR   Intensive IFR   Very Intensive IFR
Visi :
Ceiling :
>= 8 km
>= 3000ft
5 to 8 km
1000 to 3000 ft
1500m to 5 km
500 to 1000 ft
800 to 1500m
200 to 500 ft
< 800m
< 200 ft
Symbols :   Thunderstorms  Fog  Heavy snow  Heavy precipitations  Wind > 20 kt
SIGMETs :     Misc.  Thunderstorms  Icing  Turbulence  Mountain Waves  Volcanic Ashes







- Airport Elevation : 529 ft
- IATA code : CHR
- Download approach charts


LFLX - Chateauroux

CURRENT METAR :
  • 290500Z AUTO 10002KT 7000 3300 R21/1000U NSC M00/M00 Q1017 TEMPO 0600 BCFG

EXPIRED METARs :
  • 290430Z AUTO 09002KT 9999 FEW001 M00/M01 Q1017 TEMPO 0600 BCFG
  • 290400Z AUTO 14002KT 9000 VV/// M00/M00 Q1017 TEMPO 0600 BCFG BECMG NSC
  • 290330Z AUTO 00000KT 8000 FEW002 00/00 Q1017 TEMPO 0600 BCFG
  • 290300Z AUTO 00000KT 7000 3100 R21/1100D FEW003 00/00 Q1017 TEMPO 0600 BCFG
  • 290230Z AUTO 16002KT 9000 NSC 01/01 Q1018 TEMPO 0600 BCFG

TAF TAF LFLX
Valid from the 29 at 00:00 until the 30 at 06:00 UTC


282300Z 2900/3006 VRB02KT CAVOK
TEMPO 2901/2906 4000 BR
PROB30
TEMPO 2903/2906 0600 BCFG
BECMG 2907/2909 10006KT CAVOK
No reported NOTAMs for that airfield.



MET'MAP, your aeronautical weather chart ! - Copyright ORBIFLY December 2007 - Disclaimer

ORBIFLY MET'MAP TEAM :

Programming & Development : Alexandra Zaïnal
Concept & Development : Baudouin d'Aumeries
Co-Development & Prog : Marc-Olivier Méhu
Technical & hardware support : Manuel Goepfert

Contact : metmap@orbifly.com




SOURCES & CREDITS :

   NOAA